sensor_id;sensor_type;location;lat;lon;timestamp;pressure;altitude;pressure_sealevel;temperature
17142;BMP180;32805;53.556;9.944;2022-12-05T00:01:12;101797.00;;;4.70
17142;BMP180;32805;53.556;9.944;2022-12-05T00:03:40;101800.00;;;4.70
17142;BMP180;32805;53.556;9.944;2022-12-05T00:06:10;101799.00;;;4.70
17142;BMP180;32805;53.556;9.944;2022-12-05T00:08:38;101794.00;;;4.90
17142;BMP180;32805;53.556;9.944;2022-12-05T00:11:10;101771.00;;;4.80
17142;BMP180;32805;53.556;9.944;2022-12-05T00:13:39;101770.00;;;4.70
17142;BMP180;32805;53.556;9.944;2022-12-05T00:16:08;101769.00;;;4.70
17142;BMP180;32805;53.556;9.944;2022-12-05T00:18:36;101777.00;;;4.80
17142;BMP180;32805;53.556;9.944;2022-12-05T00:21:05;101777.00;;;4.80
17142;BMP180;32805;53.556;9.944;2022-12-05T00:23:34;101782.00;;;4.90
17142;BMP180;32805;53.556;9.944;2022-12-05T00:26:03;101782.00;;;4.80
17142;BMP180;32805;53.556;9.944;2022-12-05T00:28:31;101788.00;;;4.80
17142;BMP180;32805;53.556;9.944;2022-12-05T00:31:01;101785.00;;;4.70
17142;BMP180;32805;53.556;9.944;2022-12-05T00:33:29;101759.00;;;4.80
17142;BMP180;32805;53.556;9.944;2022-12-05T00:36:00;101770.00;;;4.90
17142;BMP180;32805;53.556;9.944;2022-12-05T00:38:28;101769.00;;;4.90
17142;BMP180;32805;53.556;9.944;2022-12-05T00:41:01;101770.00;;;4.80
17142;BMP180;32805;53.556;9.944;2022-12-05T00:43:28;101762.00;;;4.90
17142;BMP180;32805;53.556;9.944;2022-12-05T00:46:00;101754.00;;;4.90
17142;BMP180;32805;53.556;9.944;2022-12-05T00:48:28;101766.00;;;4.90
17142;BMP180;32805;53.556;9.944;2022-12-05T00:51:00;101775.00;;;4.90
17142;BMP180;32805;53.556;9.944;2022-12-05T00:53:28;101768.00;;;4.90
17142;BMP180;32805;53.556;9.944;2022-12-05T00:55:55;101775.00;;;4.90
17142;BMP180;32805;53.556;9.944;2022-12-05T00:58:25;101765.00;;;5.00
17142;BMP180;32805;53.556;9.944;2022-12-05T01:00:53;101758.00;;;5.10
17142;BMP180;32805;53.556;9.944;2022-12-05T01:03:21;101771.00;;;5.20
17142;BMP180;32805;53.556;9.944;2022-12-05T01:05:48;101768.00;;;5.00
17142;BMP180;32805;53.556;9.944;2022-12-05T01:08:16;101768.00;;;5.00
17142;BMP180;32805;53.556;9.944;2022-12-05T01:10:51;101754.00;;;5.00
17142;BMP180;32805;53.556;9.944;2022-12-05T01:13:19;101753.00;;;5.00
17142;BMP180;32805;53.556;9.944;2022-12-05T01:15:48;101764.00;;;4.90
17142;BMP180;32805;53.556;9.944;2022-12-05T01:18:16;101765.00;;;5.00
17142;BMP180;32805;53.556;9.944;2022-12-05T01:20:44;101773.00;;;5.10
17142;BMP180;32805;53.556;9.944;2022-12-05T01:23:12;101778.00;;;5.10
17142;BMP180;32805;53.556;9.944;2022-12-05T01:25:40;101766.00;;;5.00
17142;BMP180;32805;53.556;9.944;2022-12-05T01:28:09;101758.00;;;5.30
17142;BMP180;32805;53.556;9.944;2022-12-05T01:30:37;101756.00;;;5.20
17142;BMP180;32805;53.556;9.944;2022-12-05T01:33:07;101759.00;;;5.20
17142;BMP180;32805;53.556;9.944;2022-12-05T01:35:36;101759.00;;;5.10
17142;BMP180;32805;53.556;9.944;2022-12-05T01:38:04;101763.00;;;5.10
17142;BMP180;32805;53.556;9.944;2022-12-05T01:40:33;101750.00;;;5.10
17142;BMP180;32805;53.556;9.944;2022-12-05T01:43:02;101753.00;;;5.00
17142;BMP180;32805;53.556;9.944;2022-12-05T01:45:33;101746.00;;;5.20
17142;BMP180;32805;53.556;9.944;2022-12-05T01:48:03;101750.00;;;5.00
17142;BMP180;32805;53.556;9.944;2022-12-05T01:50:33;101746.00;;;5.00
17142;BMP180;32805;53.556;9.944;2022-12-05T01:53:02;101743.00;;;5.00
17142;BMP180;32805;53.556;9.944;2022-12-05T01:55:30;101750.00;;;5.20
17142;BMP180;32805;53.556;9.944;2022-12-05T01:58:00;101741.00;;;5.10
17142;BMP180;32805;53.556;9.944;2022-12-05T02:00:30;101743.00;;;5.10
17142;BMP180;32805;53.556;9.944;2022-12-05T02:02:59;101741.00;;;5.20
17142;BMP180;32805;53.556;9.944;2022-12-05T02:05:30;101743.00;;;5.00
17142;BMP180;32805;53.556;9.944;2022-12-05T02:08:01;101747.00;;;5.00
17142;BMP180;32805;53.556;9.944;2022-12-05T02:10:33;101730.00;;;5.20
17142;BMP180;32805;53.556;9.944;2022-12-05T02:13:10;101750.00;;;5.10
17142;BMP180;32805;53.556;9.944;2022-12-05T02:15:42;101748.00;;;5.10
17142;BMP180;32805;53.556;9.944;2022-12-05T02:18:23;101744.00;;;5.20
17142;BMP180;32805;53.556;9.944;2022-12-05T02:21:13;101733.00;;;5.20
17142;BMP180;32805;53.556;9.944;2022-12-05T02:23:56;101723.00;;;5.20
17142;BMP180;32805;53.556;9.944;2022-12-05T02:26:51;101722.00;;;5.20
17142;BMP180;32805;53.556;9.944;2022-12-05T02:29:43;101715.00;;;5.30
17142;BMP180;32805;53.556;9.944;2022-12-05T02:32:17;101724.00;;;5.30
17142;BMP180;32805;53.556;9.944;2022-12-05T02:34:53;101725.00;;;5.40
17142;BMP180;32805;53.556;9.944;2022-12-05T02:37:27;101723.00;;;5.40
17142;BMP180;32805;53.556;9.944;2022-12-05T02:40:01;101722.00;;;5.30
17142;BMP180;32805;53.556;9.944;2022-12-05T02:42:32;101709.00;;;5.30
17142;BMP180;32805;53.556;9.944;2022-12-05T02:45:08;101714.00;;;5.30
17142;BMP180;32805;53.556;9.944;2022-12-05T02:47:39;101705.00;;;5.20
17142;BMP180;32805;53.556;9.944;2022-12-05T02:50:11;101686.00;;;5.10
17142;BMP180;32805;53.556;9.944;2022-12-05T02:52:41;101683.00;;;5.10
17142;BMP180;32805;53.556;9.944;2022-12-05T02:55:12;101695.00;;;5.20
17142;BMP180;32805;53.556;9.944;2022-12-05T02:57:42;101690.00;;;5.30
17142;BMP180;32805;53.556;9.944;2022-12-05T03:00:14;101707.00;;;5.20
17142;BMP180;32805;53.556;9.944;2022-12-05T03:02:42;101706.00;;;5.30
17142;BMP180;32805;53.556;9.944;2022-12-05T03:05:16;101692.00;;;5.40
17142;BMP180;32805;53.556;9.944;2022-12-05T03:07:48;101702.00;;;5.20
17142;BMP180;32805;53.556;9.944;2022-12-05T03:10:21;101690.00;;;5.30
17142;BMP180;32805;53.556;9.944;2022-12-05T03:12:55;101688.00;;;5.20
17142;BMP180;32805;53.556;9.944;2022-12-05T03:15:26;101687.00;;;5.30
17142;BMP180;32805;53.556;9.944;2022-12-05T03:17:59;101686.00;;;5.20
17142;BMP180;32805;53.556;9.944;2022-12-05T03:20:35;101694.00;;;5.10
17142;BMP180;32805;53.556;9.944;2022-12-05T03:23:08;101703.00;;;5.10
17142;BMP180;32805;53.556;9.944;2022-12-05T03:25:43;101693.00;;;5.20
17142;BMP180;32805;53.556;9.944;2022-12-05T03:28:18;101698.00;;;5.20
17142;BMP180;32805;53.556;9.944;2022-12-05T03:30:52;101690.00;;;5.20
17142;BMP180;32805;53.556;9.944;2022-12-05T03:33:22;101696.00;;;5.10
17142;BMP180;32805;53.556;9.944;2022-12-05T03:35:59;101694.00;;;5.30
17142;BMP180;32805;53.556;9.944;2022-12-05T03:38:30;101694.00;;;5.30
17142;BMP180;32805;53.556;9.944;2022-12-05T03:41:06;101688.00;;;5.30
17142;BMP180;32805;53.556;9.944;2022-12-05T03:43:41;101701.00;;;5.10
17142;BMP180;32805;53.556;9.944;2022-12-05T03:46:16;101692.00;;;5.10
17142;BMP180;32805;53.556;9.944;2022-12-05T03:48:48;101697.00;;;5.30
17142;BMP180;32805;53.556;9.944;2022-12-05T03:51:19;101697.00;;;5.30
17142;BMP180;32805;53.556;9.944;2022-12-05T03:53:52;101694.00;;;5.40
17142;BMP180;32805;53.556;9.944;2022-12-05T03:56:24;101698.00;;;5.40
17142;BMP180;32805;53.556;9.944;2022-12-05T03:58:57;101706.00;;;5.20
17142;BMP180;32805;53.556;9.944;2022-12-05T04:01:30;101697.00;;;5.40
17142;BMP180;32805;53.556;9.944;2022-12-05T04:04:03;101690.00;;;5.60
17142;BMP180;32805;53.556;9.944;2022-12-05T04:06:34;101692.00;;;5.50
17142;BMP180;32805;53.556;9.944;2022-12-05T04:09:05;101702.00;;;5.40
17142;BMP180;32805;53.556;9.944;2022-12-05T04:11:44;101690.00;;;5.30
17142;BMP180;32805;53.556;9.944;2022-12-05T04:14:17;101708.00;;;5.30
17142;BMP180;32805;53.556;9.944;2022-12-05T04:16:52;101694.00;;;5.50
17142;BMP180;32805;53.556;9.944;2022-12-05T04:19:33;101691.00;;;5.50
17142;BMP180;32805;53.556;9.944;2022-12-05T04:22:18;101677.00;;;5.30
17142;BMP180;32805;53.556;9.944;2022-12-05T04:24:47;101694.00;;;5.20
17142;BMP180;32805;53.556;9.944;2022-12-05T04:27:38;101701.00;;;5.10
17142;BMP180;32805;53.556;9.944;2022-12-05T04:30:10;101698.00;;;5.20
17142;BMP180;32805;53.556;9.944;2022-12-05T04:32:44;101698.00;;;5.10
17142;BMP180;32805;53.556;9.944;2022-12-05T04:35:15;101697.00;;;5.10
17142;BMP180;32805;53.556;9.944;2022-12-05T04:37:47;101698.00;;;5.20
17142;BMP180;32805;53.556;9.944;2022-12-05T04:40:19;101704.00;;;5.30
17142;BMP180;32805;53.556;9.944;2022-12-05T04:42:50;101697.00;;;5.20
17142;BMP180;32805;53.556;9.944;2022-12-05T04:45:19;101707.00;;;5.10
17142;BMP180;32805;53.556;9.944;2022-12-05T04:47:53;101711.00;;;5.30
17142;BMP180;32805;53.556;9.944;2022-12-05T04:50:23;101700.00;;;5.20
17142;BMP180;32805;53.556;9.944;2022-12-05T04:52:54;101701.00;;;5.30
17142;BMP180;32805;53.556;9.944;2022-12-05T04:55:25;101706.00;;;5.30
17142;BMP180;32805;53.556;9.944;2022-12-05T04:58:00;101700.00;;;5.20
17142;BMP180;32805;53.556;9.944;2022-12-05T05:00:34;101702.00;;;5.20
17142;BMP180;32805;53.556;9.944;2022-12-05T05:03:09;101704.00;;;5.30
17142;BMP180;32805;53.556;9.944;2022-12-05T05:05:39;101689.00;;;5.40
17142;BMP180;32805;53.556;9.944;2022-12-05T05:08:15;101691.00;;;5.30
17142;BMP180;32805;53.556;9.944;2022-12-05T05:10:49;101698.00;;;5.10
17142;BMP180;32805;53.556;9.944;2022-12-05T05:13:18;101699.00;;;5.00
17142;BMP180;32805;53.556;9.944;2022-12-05T05:15:46;101694.00;;;5.00
17142;BMP180;32805;53.556;9.944;2022-12-05T05:18:15;101673.00;;;5.20
17142;BMP180;32805;53.556;9.944;2022-12-05T05:20:43;101678.00;;;5.10
17142;BMP180;32805;53.556;9.944;2022-12-05T05:23:10;101678.00;;;5.10
17142;BMP180;32805;53.556;9.944;2022-12-05T05:25:39;101680.00;;;5.10
17142;BMP180;32805;53.556;9.944;2022-12-05T05:28:06;101681.00;;;5.00
17142;BMP180;32805;53.556;9.944;2022-12-05T05:30:34;101693.00;;;5.00
17142;BMP180;32805;53.556;9.944;2022-12-05T05:33:01;101683.00;;;5.00
17142;BMP180;32805;53.556;9.944;2022-12-05T05:35:30;101689.00;;;5.00
17142;BMP180;32805;53.556;9.944;2022-12-05T05:38:02;101687.00;;;4.90
17142;BMP180;32805;53.556;9.944;2022-12-05T05:40:29;101687.00;;;5.10
17142;BMP180;32805;53.556;9.944;2022-12-05T05:42:57;101685.00;;;5.10
17142;BMP180;32805;53.556;9.944;2022-12-05T05:45:25;101689.00;;;5.20
17142;BMP180;32805;53.556;9.944;2022-12-05T05:47:52;101690.00;;;5.00
17142;BMP180;32805;53.556;9.944;2022-12-05T05:50:20;101694.00;;;5.00
17142;BMP180;32805;53.556;9.944;2022-12-05T05:52:50;101671.00;;;5.00
17142;BMP180;32805;53.556;9.944;2022-12-05T05:55:18;101694.00;;;5.10
17142;BMP180;32805;53.556;9.944;2022-12-05T05:57:46;101684.00;;;5.10
17142;BMP180;32805;53.556;9.944;2022-12-05T06:00:15;101697.00;;;5.10
17142;BMP180;32805;53.556;9.944;2022-12-05T06:02:43;101702.00;;;5.10
17142;BMP180;32805;53.556;9.944;2022-12-05T06:05:11;101699.00;;;5.10
17142;BMP180;32805;53.556;9.944;2022-12-05T06:07:38;101696.00;;;5.00
17142;BMP180;32805;53.556;9.944;2022-12-05T06:10:08;101706.00;;;5.00
17142;BMP180;32805;53.556;9.944;2022-12-05T06:12:36;101696.00;;;4.90
17142;BMP180;32805;53.556;9.944;2022-12-05T06:15:08;101696.00;;;5.10
17142;BMP180;32805;53.556;9.944;2022-12-05T06:17:36;101696.00;;;5.20
17142;BMP180;32805;53.556;9.944;2022-12-05T06:20:05;101701.00;;;5.00
17142;BMP180;32805;53.556;9.944;2022-12-05T06:22:34;101706.00;;;4.90
17142;BMP180;32805;53.556;9.944;2022-12-05T06:25:02;101707.00;;;5.00
17142;BMP180;32805;53.556;9.944;2022-12-05T06:27:32;101699.00;;;4.80
17142;BMP180;32805;53.556;9.944;2022-12-05T06:30:09;101707.00;;;4.60
17142;BMP180;32805;53.556;9.944;2022-12-05T06:32:37;101702.00;;;4.60
17142;BMP180;32805;53.556;9.944;2022-12-05T06:35:07;101692.00;;;4.70
17142;BMP180;32805;53.556;9.944;2022-12-05T06:37:41;101703.00;;;4.80
17142;BMP180;32805;53.556;9.944;2022-12-05T06:40:10;101704.00;;;4.70
17142;BMP180;32805;53.556;9.944;2022-12-05T06:42:39;101709.00;;;4.70
17142;BMP180;32805;53.556;9.944;2022-12-05T06:45:08;101719.00;;;4.70
17142;BMP180;32805;53.556;9.944;2022-12-05T06:47:36;101721.00;;;4.60
17142;BMP180;32805;53.556;9.944;2022-12-05T06:50:04;101714.00;;;4.60
17142;BMP180;32805;53.556;9.944;2022-12-05T06:52:35;101702.00;;;4.60
17142;BMP180;32805;53.556;9.944;2022-12-05T06:55:04;101719.00;;;4.60
17142;BMP180;32805;53.556;9.944;2022-12-05T06:57:42;101717.00;;;4.60
17142;BMP180;32805;53.556;9.944;2022-12-05T07:00:19;101701.00;;;4.60
17142;BMP180;32805;53.556;9.944;2022-12-05T07:03:05;101716.00;;;4.60
17142;BMP180;32805;53.556;9.944;2022-12-05T07:05:32;101709.00;;;4.70
17142;BMP180;32805;53.556;9.944;2022-12-05T07:08:02;101719.00;;;4.60
17142;BMP180;32805;53.556;9.944;2022-12-05T07:10:33;101715.00;;;4.60
17142;BMP180;32805;53.556;9.944;2022-12-05T07:13:15;101715.00;;;4.50
17142;BMP180;32805;53.556;9.944;2022-12-05T07:16:01;101688.00;;;4.70
17142;BMP180;32805;53.556;9.944;2022-12-05T07:18:39;101678.00;;;4.70
17142;BMP180;32805;53.556;9.944;2022-12-05T07:21:14;101713.00;;;4.70
17142;BMP180;32805;53.556;9.944;2022-12-05T07:23:45;101711.00;;;4.80
17142;BMP180;32805;53.556;9.944;2022-12-05T07:26:18;101696.00;;;4.80
17142;BMP180;32805;53.556;9.944;2022-12-05T07:28:50;101688.00;;;4.70
17142;BMP180;32805;53.556;9.944;2022-12-05T07:31:25;101688.00;;;4.70
17142;BMP180;32805;53.556;9.944;2022-12-05T07:33:58;101713.00;;;4.70
17142;BMP180;32805;53.556;9.944;2022-12-05T07:36:26;101687.00;;;4.70
17142;BMP180;32805;53.556;9.944;2022-12-05T07:38:55;101702.00;;;4.60
17142;BMP180;32805;53.556;9.944;2022-12-05T07:41:25;101701.00;;;4.60
17142;BMP180;32805;53.556;9.944;2022-12-05T07:43:57;101714.00;;;4.50
17142;BMP180;32805;53.556;9.944;2022-12-05T07:46:27;101705.00;;;4.60
17142;BMP180;32805;53.556;9.944;2022-12-05T07:48:56;101698.00;;;4.60
17142;BMP180;32805;53.556;9.944;2022-12-05T07:51:24;101719.00;;;4.60
17142;BMP180;32805;53.556;9.944;2022-12-05T07:53:51;101711.00;;;4.50
17142;BMP180;32805;53.556;9.944;2022-12-05T07:56:19;101714.00;;;4.50
17142;BMP180;32805;53.556;9.944;2022-12-05T07:58:48;101716.00;;;4.40
17142;BMP180;32805;53.556;9.944;2022-12-05T08:01:19;101715.00;;;4.30
17142;BMP180;32805;53.556;9.944;2022-12-05T08:03:50;101713.00;;;4.30
17142;BMP180;32805;53.556;9.944;2022-12-05T08:06:21;101719.00;;;4.30
17142;BMP180;32805;53.556;9.944;2022-12-05T08:08:48;101708.00;;;4.30
17142;BMP180;32805;53.556;9.944;2022-12-05T08:11:18;101717.00;;;4.30
17142;BMP180;32805;53.556;9.944;2022-12-05T08:13:48;101703.00;;;4.30
17142;BMP180;32805;53.556;9.944;2022-12-05T08:16:19;101725.00;;;4.30
17142;BMP180;32805;53.556;9.944;2022-12-05T08:18:53;101723.00;;;4.30
17142;BMP180;32805;53.556;9.944;2022-12-05T08:21:26;101724.00;;;4.30
17142;BMP180;32805;53.556;9.944;2022-12-05T08:23:57;101696.00;;;4.40
17142;BMP180;32805;53.556;9.944;2022-12-05T08:26:27;101690.00;;;4.30
17142;BMP180;32805;53.556;9.944;2022-12-05T08:28:57;101720.00;;;4.40
17142;BMP180;32805;53.556;9.944;2022-12-05T08:31:30;101696.00;;;4.40
17142;BMP180;32805;53.556;9.944;2022-12-05T08:34:00;101728.00;;;4.40
17142;BMP180;32805;53.556;9.944;2022-12-05T08:36:29;101730.00;;;4.20
17142;BMP180;32805;53.556;9.944;2022-12-05T08:39:00;101731.00;;;4.20
17142;BMP180;32805;53.556;9.944;2022-12-05T08:41:31;101733.00;;;4.30
17142;BMP180;32805;53.556;9.944;2022-12-05T08:44:00;101739.00;;;4.30
17142;BMP180;32805;53.556;9.944;2022-12-05T08:46:29;101737.00;;;4.30
17142;BMP180;32805;53.556;9.944;2022-12-05T08:48:57;101735.00;;;4.30
17142;BMP180;32805;53.556;9.944;2022-12-05T08:51:27;101745.00;;;4.30
17142;BMP180;32805;53.556;9.944;2022-12-05T08:53:54;101743.00;;;4.30
17142;BMP180;32805;53.556;9.944;2022-12-05T08:56:23;101750.00;;;4.30
17142;BMP180;32805;53.556;9.944;2022-12-05T08:58:53;101753.00;;;4.20
17142;BMP180;32805;53.556;9.944;2022-12-05T09:01:28;101736.00;;;4.30
17142;BMP180;32805;53.556;9.944;2022-12-05T09:03:58;101750.00;;;4.30
17142;BMP180;32805;53.556;9.944;2022-12-05T09:06:28;101747.00;;;4.20
17142;BMP180;32805;53.556;9.944;2022-12-05T09:08:58;101757.00;;;4.20
17142;BMP180;32805;53.556;9.944;2022-12-05T09:11:28;101746.00;;;4.10
17142;BMP180;32805;53.556;9.944;2022-12-05T09:13:58;101740.00;;;4.10
17142;BMP180;32805;53.556;9.944;2022-12-05T09:16:27;101752.00;;;4.20
17142;BMP180;32805;53.556;9.944;2022-12-05T09:19:05;101752.00;;;4.10
17142;BMP180;32805;53.556;9.944;2022-12-05T09:21:34;101746.00;;;4.10
17142;BMP180;32805;53.556;9.944;2022-12-05T09:24:02;101755.00;;;4.00
17142;BMP180;32805;53.556;9.944;2022-12-05T09:26:30;101748.00;;;4.00
17142;BMP180;32805;53.556;9.944;2022-12-05T09:28:57;101756.00;;;3.90
17142;BMP180;32805;53.556;9.944;2022-12-05T09:31:25;101762.00;;;3.90
17142;BMP180;32805;53.556;9.944;2022-12-05T09:33:53;101762.00;;;3.90
17142;BMP180;32805;53.556;9.944;2022-12-05T09:36:23;101764.00;;;3.90
17142;BMP180;32805;53.556;9.944;2022-12-05T09:38:53;101755.00;;;3.80
17142;BMP180;32805;53.556;9.944;2022-12-05T09:41:55;101751.00;;;3.70
17142;BMP180;32805;53.556;9.944;2022-12-05T09:44:51;101760.00;;;3.70
17142;BMP180;32805;53.556;9.944;2022-12-05T09:47:30;101762.00;;;3.70
17142;BMP180;32805;53.556;9.944;2022-12-05T09:50:12;101756.00;;;3.70
17142;BMP180;32805;53.556;9.944;2022-12-05T09:52:52;101753.00;;;3.70
17142;BMP180;32805;53.556;9.944;2022-12-05T09:55:23;101753.00;;;3.80
17142;BMP180;32805;53.556;9.944;2022-12-05T09:57:55;101743.00;;;3.80
17142;BMP180;32805;53.556;9.944;2022-12-05T10:00:50;101758.00;;;3.70
17142;BMP180;32805;53.556;9.944;2022-12-05T10:04:11;101745.00;;;3.70
17142;BMP180;32805;53.556;9.944;2022-12-05T10:07:24;101734.00;;;3.80
17142;BMP180;32805;53.556;9.944;2022-12-05T10:10:16;101746.00;;;3.70
17142;BMP180;32805;53.556;9.944;2022-12-05T10:13:21;101753.00;;;3.70
17142;BMP180;32805;53.556;9.944;2022-12-05T10:16:19;101747.00;;;3.70
17142;BMP180;32805;53.556;9.944;2022-12-05T10:18:52;101742.00;;;3.70
17142;BMP180;32805;53.556;9.944;2022-12-05T10:21:30;101741.00;;;3.70
17142;BMP180;32805;53.556;9.944;2022-12-05T10:24:59;101752.00;;;3.70
17142;BMP180;32805;53.556;9.944;2022-12-05T10:27:57;101749.00;;;3.70
17142;BMP180;32805;53.556;9.944;2022-12-05T10:30:33;101744.00;;;3.60
17142;BMP180;32805;53.556;9.944;2022-12-05T10:33:20;101740.00;;;3.70
17142;BMP180;32805;53.556;9.944;2022-12-05T10:35:54;101731.00;;;3.70
17142;BMP180;32805;53.556;9.944;2022-12-05T10:38:55;101740.00;;;3.60
17142;BMP180;32805;53.556;9.944;2022-12-05T10:41:45;101714.00;;;3.70
17142;BMP180;32805;53.556;9.944;2022-12-05T10:44:41;101739.00;;;3.70
17142;BMP180;32805;53.556;9.944;2022-12-05T10:47:13;101738.00;;;3.60
17142;BMP180;32805;53.556;9.944;2022-12-05T10:49:41;101709.00;;;3.70
17142;BMP180;32805;53.556;9.944;2022-12-05T10:52:09;101739.00;;;3.70
17142;BMP180;32805;53.556;9.944;2022-12-05T10:54:42;101730.00;;;3.70
17142;BMP180;32805;53.556;9.944;2022-12-05T10:57:20;101737.00;;;3.70
17142;BMP180;32805;53.556;9.944;2022-12-05T10:59:48;101713.00;;;3.70
17142;BMP180;32805;53.556;9.944;2022-12-05T11:02:21;101716.00;;;3.80
17142;BMP180;32805;53.556;9.944;2022-12-05T11:04:51;101723.00;;;3.90
17142;BMP180;32805;53.556;9.944;2022-12-05T11:07:25;101721.00;;;4.00
17142;BMP180;32805;53.556;9.944;2022-12-05T11:09:54;101708.00;;;3.90
17142;BMP180;32805;53.556;9.944;2022-12-05T11:12:22;101715.00;;;3.90
17142;BMP180;32805;53.556;9.944;2022-12-05T11:14:57;101713.00;;;4.00
17142;BMP180;32805;53.556;9.944;2022-12-05T11:17:30;101707.00;;;3.90
17142;BMP180;32805;53.556;9.944;2022-12-05T11:19:59;101713.00;;;3.90
17142;BMP180;32805;53.556;9.944;2022-12-05T11:22:32;101701.00;;;3.90
17142;BMP180;32805;53.556;9.944;2022-12-05T11:25:22;101707.00;;;3.90
17142;BMP180;32805;53.556;9.944;2022-12-05T11:27:53;101711.00;;;3.90
17142;BMP180;32805;53.556;9.944;2022-12-05T11:30:28;101698.00;;;3.90
17142;BMP180;32805;53.556;9.944;2022-12-05T11:33:15;101703.00;;;3.80
17142;BMP180;32805;53.556;9.944;2022-12-05T11:35:45;101696.00;;;3.80
17142;BMP180;32805;53.556;9.944;2022-12-05T11:38:15;101710.00;;;3.80
17142;BMP180;32805;53.556;9.944;2022-12-05T11:40:50;101701.00;;;3.80
17142;BMP180;32805;53.556;9.944;2022-12-05T11:43:33;101699.00;;;3.80
17142;BMP180;32805;53.556;9.944;2022-12-05T11:46:09;101688.00;;;3.80
17142;BMP180;32805;53.556;9.944;2022-12-05T11:48:52;101690.00;;;3.80
17142;BMP180;32805;53.556;9.944;2022-12-05T11:51:36;101689.00;;;3.80
17142;BMP180;32805;53.556;9.944;2022-12-05T11:54:23;101687.00;;;3.80
17142;BMP180;32805;53.556;9.944;2022-12-05T11:57:20;101687.00;;;3.80
17142;BMP180;32805;53.556;9.944;2022-12-05T12:00:02;101693.00;;;3.80
17142;BMP180;32805;53.556;9.944;2022-12-05T12:02:51;101678.00;;;3.90
17142;BMP180;32805;53.556;9.944;2022-12-05T12:05:30;101682.00;;;3.90
17142;BMP180;32805;53.556;9.944;2022-12-05T12:08:04;101679.00;;;3.90
17142;BMP180;32805;53.556;9.944;2022-12-05T12:10:42;101675.00;;;3.90
17142;BMP180;32805;53.556;9.944;2022-12-05T12:13:25;101682.00;;;4.00
17142;BMP180;32805;53.556;9.944;2022-12-05T12:16:05;101691.00;;;3.90
17142;BMP180;32805;53.556;9.944;2022-12-05T12:22:01;101691.00;;;3.80
17142;BMP180;32805;53.556;9.944;2022-12-05T12:24:43;101682.00;;;3.80
17142;BMP180;32805;53.556;9.944;2022-12-05T12:27:27;101690.00;;;3.70
17142;BMP180;32805;53.556;9.944;2022-12-05T12:30:06;101686.00;;;3.70
17142;BMP180;32805;53.556;9.944;2022-12-05T12:32:42;101684.00;;;3.80
17142;BMP180;32805;53.556;9.944;2022-12-05T12:35:31;101678.00;;;3.70
17142;BMP180;32805;53.556;9.944;2022-12-05T12:38:19;101686.00;;;3.60
17142;BMP180;32805;53.556;9.944;2022-12-05T12:40:54;101684.00;;;3.60
17142;BMP180;32805;53.556;9.944;2022-12-05T12:43:38;101679.00;;;3.60
17142;BMP180;32805;53.556;9.944;2022-12-05T12:46:29;101676.00;;;3.70
17142;BMP180;32805;53.556;9.944;2022-12-05T12:49:14;101672.00;;;3.70
17142;BMP180;32805;53.556;9.944;2022-12-05T12:51:49;101672.00;;;3.80
17142;BMP180;32805;53.556;9.944;2022-12-05T12:57:39;101669.00;;;3.80
17142;BMP180;32805;53.556;9.944;2022-12-05T13:00:21;101664.00;;;3.80
17142;BMP180;32805;53.556;9.944;2022-12-05T13:02:51;101658.00;;;3.80
17142;BMP180;32805;53.556;9.944;2022-12-05T13:05:26;101664.00;;;3.80
17142;BMP180;32805;53.556;9.944;2022-12-05T13:08:00;101657.00;;;3.90
17142;BMP180;32805;53.556;9.944;2022-12-05T13:10:33;101662.00;;;3.80
17142;BMP180;32805;53.556;9.944;2022-12-05T13:13:03;101661.00;;;3.80
17142;BMP180;32805;53.556;9.944;2022-12-05T13:15:34;101656.00;;;3.90
17142;BMP180;32805;53.556;9.944;2022-12-05T13:18:03;101661.00;;;3.80
17142;BMP180;32805;53.556;9.944;2022-12-05T13:20:33;101656.00;;;3.80
17142;BMP180;32805;53.556;9.944;2022-12-05T13:23:02;101652.00;;;3.80
17142;BMP180;32805;53.556;9.944;2022-12-05T13:25:36;101659.00;;;3.80
17142;BMP180;32805;53.556;9.944;2022-12-05T13:28:17;101646.00;;;3.70
17142;BMP180;32805;53.556;9.944;2022-12-05T13:30:51;101637.00;;;3.80
17142;BMP180;32805;53.556;9.944;2022-12-05T13:33:30;101658.00;;;3.80
17142;BMP180;32805;53.556;9.944;2022-12-05T13:36:05;101662.00;;;3.80
17142;BMP180;32805;53.556;9.944;2022-12-05T13:38:56;101669.00;;;3.80
17142;BMP180;32805;53.556;9.944;2022-12-05T13:41:45;101659.00;;;3.80
17142;BMP180;32805;53.556;9.944;2022-12-05T13:44:35;101663.00;;;3.80
17142;BMP180;32805;53.556;9.944;2022-12-05T13:47:04;101660.00;;;3.80
17142;BMP180;32805;53.556;9.944;2022-12-05T13:49:40;101659.00;;;3.80
17142;BMP180;32805;53.556;9.944;2022-12-05T13:52:12;101666.00;;;3.70
17142;BMP180;32805;53.556;9.944;2022-12-05T13:54:47;101657.00;;;3.80
17142;BMP180;32805;53.556;9.944;2022-12-05T13:57:47;101660.00;;;3.80
17142;BMP180;32805;53.556;9.944;2022-12-05T14:00:34;101666.00;;;3.70
17142;BMP180;32805;53.556;9.944;2022-12-05T14:03:06;101677.00;;;3.70
17142;BMP180;32805;53.556;9.944;2022-12-05T14:05:49;101667.00;;;3.70
17142;BMP180;32805;53.556;9.944;2022-12-05T14:11:30;101674.00;;;3.80
17142;BMP180;32805;53.556;9.944;2022-12-05T14:13:59;101682.00;;;3.70
17142;BMP180;32805;53.556;9.944;2022-12-05T14:16:42;101681.00;;;3.70
17142;BMP180;32805;53.556;9.944;2022-12-05T14:22:35;101664.00;;;3.60
17142;BMP180;32805;53.556;9.944;2022-12-05T14:25:12;101669.00;;;3.70
17142;BMP180;32805;53.556;9.944;2022-12-05T14:27:52;101666.00;;;3.70
17142;BMP180;32805;53.556;9.944;2022-12-05T14:30:29;101667.00;;;3.60
17142;BMP180;32805;53.556;9.944;2022-12-05T14:33:00;101671.00;;;3.60
17142;BMP180;32805;53.556;9.944;2022-12-05T14:35:30;101671.00;;;3.60
17142;BMP180;32805;53.556;9.944;2022-12-05T14:38:01;101651.00;;;3.60
17142;BMP180;32805;53.556;9.944;2022-12-05T14:40:31;101662.00;;;3.60
17142;BMP180;32805;53.556;9.944;2022-12-05T14:43:02;101648.00;;;3.60
17142;BMP180;32805;53.556;9.944;2022-12-05T14:45:34;101659.00;;;3.50
17142;BMP180;32805;53.556;9.944;2022-12-05T14:48:23;101664.00;;;3.60
17142;BMP180;32805;53.556;9.944;2022-12-05T14:50:55;101660.00;;;3.60
17142;BMP180;32805;53.556;9.944;2022-12-05T14:53:29;101655.00;;;3.60
17142;BMP180;32805;53.556;9.944;2022-12-05T14:56:04;101665.00;;;3.50
17142;BMP180;32805;53.556;9.944;2022-12-05T14:58:38;101668.00;;;3.50
17142;BMP180;32805;53.556;9.944;2022-12-05T15:01:16;101678.00;;;3.50